Azalia, Michigan
Current Conditions -  °F | °C
As of 11:36 AM on Friday 19 Dec 2014 (Local Time) from KTTF Reporting Station
Overcast Overcast  
Wind Chill: -2°   Ceiling: 2700
Heat Index: -2°   Visibility: 10mi
Dew Point: -4°   Wind: 0mph
Humidity: 86%   Direction: NA
Pressure: 30.26"   Gusts: NA
Location:  42.02°N, 83.67°W
Report Text: KTTF 191636Z AUTO 00000KT 10SM OVC027 M02/M04 A3026 RMK AO2
Loading
Personal Weather Stations






























Interactive Weather Map New forecast layout! Learn more

10-Day Weather Forecast

Advertisements
Track Severe Weather on mobile